createdAt,value
2023-06-23T00:01:24.012Z,45.27
2023-06-23T00:03:56.242Z,45.49
2023-06-23T00:06:27.132Z,45.45
2023-06-23T00:08:57.809Z,45.66
2023-06-23T00:11:32.581Z,45.57
2023-06-23T00:14:03.203Z,45.90
2023-06-23T00:16:52.253Z,45.85
2023-06-23T00:19:23.125Z,45.78
2023-06-23T00:21:54.435Z,46.06
2023-06-23T00:24:25.196Z,46.19
2023-06-23T00:26:55.926Z,46.07
2023-06-23T00:29:26.577Z,46.15
2023-06-23T00:31:57.232Z,46.28
2023-06-23T00:34:28.054Z,46.43
2023-06-23T00:36:58.658Z,46.35
2023-06-23T00:39:50.200Z,46.78
2023-06-23T00:42:21.009Z,46.85
2023-06-23T00:45:08.020Z,46.66
2023-06-23T00:47:38.845Z,46.82
2023-06-23T00:50:10.754Z,46.85
2023-06-23T00:52:41.784Z,46.86
2023-06-23T00:55:12.943Z,46.99
2023-06-23T00:57:43.842Z,47.07
2023-06-23T01:00:18.477Z,47.22
2023-06-23T01:02:50.839Z,47.22
2023-06-23T01:05:31.618Z,47.25
2023-06-23T01:08:06.164Z,47.46
2023-06-23T01:10:38.483Z,47.61
2023-06-23T01:13:11.204Z,47.70
2023-06-23T01:15:42.480Z,47.63
2023-06-23T01:18:34.850Z,47.66
2023-06-23T01:21:18.136Z,47.75
2023-06-23T01:24:12.458Z,47.94
2023-06-23T01:26:56.946Z,47.90
2023-06-23T01:29:29.359Z,48.09
2023-06-23T01:32:03.073Z,48.13
2023-06-23T01:34:39.951Z,48.30
2023-06-23T01:37:11.399Z,48.49
2023-06-23T01:39:42.723Z,48.42
2023-06-23T01:42:16.235Z,48.46
2023-06-23T01:44:47.609Z,48.48
2023-06-23T01:47:20.122Z,48.57
2023-06-23T01:49:51.206Z,48.51
2023-06-23T01:52:22.055Z,48.46
2023-06-23T01:54:52.941Z,48.68
2023-06-23T01:57:23.752Z,48.81
2023-06-23T01:59:54.672Z,48.88
2023-06-23T02:02:25.878Z,48.89
2023-06-23T02:04:57.102Z,48.92
2023-06-23T02:07:27.927Z,49.07
2023-06-23T02:09:59.404Z,49.12
2023-06-23T02:12:30.185Z,49.29
2023-06-23T02:15:00.924Z,49.25
2023-06-23T02:17:31.768Z,49.17
2023-06-23T02:20:06.487Z,49.09
2023-06-23T02:22:37.344Z,49.15
2023-06-23T02:25:08.960Z,49.30
2023-06-23T02:27:39.787Z,49.13
2023-06-23T02:30:13.906Z,49.36
2023-06-23T02:32:44.662Z,49.47
2023-06-23T02:35:16.557Z,49.51
2023-06-23T02:37:48.308Z,49.60
2023-06-23T02:40:19.875Z,49.64
2023-06-23T02:42:53.124Z,49.74
2023-06-23T02:45:24.838Z,49.70
2023-06-23T02:47:55.669Z,49.75
2023-06-23T02:50:37.921Z,49.64
2023-06-23T02:53:10.196Z,49.88
2023-06-23T02:55:42.635Z,50.08
2023-06-23T02:58:14.302Z,49.86
2023-06-23T03:00:45.342Z,49.97
2023-06-23T03:03:17.075Z,49.84
2023-06-23T03:05:48.775Z,49.95
2023-06-23T03:08:19.476Z,49.99
2023-06-23T03:10:50.294Z,49.98
2023-06-23T03:13:21.194Z,50.12
2023-06-23T03:15:52.366Z,49.86
2023-06-23T03:18:23.319Z,50.22
2023-06-23T03:20:53.964Z,50.23
2023-06-23T03:23:24.589Z,50.16
2023-06-23T03:26:29.873Z,50.34
2023-06-23T03:29:01.554Z,50.25
2023-06-23T03:31:42.960Z,50.42
2023-06-23T03:34:14.061Z,50.33
2023-06-23T03:36:45.520Z,50.60
2023-06-23T03:39:18.931Z,50.53
2023-06-23T03:41:50.108Z,50.53
2023-06-23T03:44:23.546Z,50.70
2023-06-23T03:46:55.449Z,50.68
2023-06-23T03:49:29.758Z,50.55
2023-06-23T03:52:03.499Z,50.72
2023-06-23T03:54:36.028Z,51.03
2023-06-23T03:57:07.984Z,51.13
2023-06-23T03:59:39.593Z,50.83
2023-06-23T04:02:11.036Z,50.86
2023-06-23T04:04:42.498Z,51.11
2023-06-23T04:07:13.900Z,51.26
2023-06-23T04:09:46.663Z,51.20
2023-06-23T04:12:18.160Z,51.27
2023-06-23T04:14:49.915Z,51.45
2023-06-23T04:17:22.291Z,51.60
2023-06-23T04:20:00.732Z,51.61
2023-06-23T04:23:04.400Z,51.51
2023-06-23T04:25:35.866Z,51.52
2023-06-23T04:28:07.668Z,51.60
2023-06-23T04:30:39.026Z,51.64
2023-06-23T04:33:18.564Z,51.62
2023-06-23T04:35:53.080Z,51.43
2023-06-23T04:38:27.985Z,51.35
2023-06-23T04:41:26.485Z,51.40
2023-06-23T04:44:01.326Z,51.47
2023-06-23T04:46:33.501Z,51.36
2023-06-23T04:49:05.152Z,51.38
2023-06-23T04:51:37.898Z,51.41
2023-06-23T04:54:12.366Z,51.29
2023-06-23T04:56:43.565Z,51.41
2023-06-23T04:59:15.431Z,51.20
2023-06-23T05:01:46.750Z,51.34
2023-06-23T05:04:18.299Z,51.25
2023-06-23T05:06:51.061Z,51.22
2023-06-23T05:09:25.562Z,51.16
2023-06-23T05:11:57.997Z,51.14
2023-06-23T05:14:29.816Z,51.05
2023-06-23T05:17:22.300Z,51.06
2023-06-23T05:19:54.649Z,51.06
2023-06-23T05:22:29.698Z,51.03
2023-06-23T05:25:05.180Z,51.00
2023-06-23T05:27:36.417Z,50.94
2023-06-23T05:30:11.603Z,51.00
2023-06-23T05:32:42.479Z,50.83
2023-06-23T05:35:13.276Z,50.77
2023-06-23T05:37:44.327Z,50.81
2023-06-23T05:40:16.397Z,50.81
2023-06-23T05:42:47.155Z,50.78
2023-06-23T05:48:16.609Z,50.66
2023-06-23T05:50:48.503Z,50.57
2023-06-23T05:53:21.474Z,50.50
2023-06-23T05:55:53.497Z,50.51
2023-06-23T05:58:25.027Z,50.50
2023-06-23T06:00:56.470Z,50.49
2023-06-23T06:03:29.035Z,50.29
2023-06-23T06:06:00.013Z,50.32
2023-06-23T06:08:33.273Z,50.38
2023-06-23T06:11:06.118Z,50.31
2023-06-23T06:13:37.440Z,50.27
2023-06-23T06:16:09.874Z,49.98
2023-06-23T06:18:41.012Z,50.13
2023-06-23T06:21:12.017Z,49.92
2023-06-23T06:23:42.729Z,49.97
2023-06-23T06:26:13.512Z,49.62
2023-06-23T06:28:44.455Z,49.57
2023-06-23T06:31:15.355Z,49.72
2023-06-23T06:33:48.833Z,49.36
2023-06-23T06:36:19.612Z,49.50
2023-06-23T06:38:51.006Z,49.44
2023-06-23T06:41:21.987Z,49.21
2023-06-23T06:43:52.875Z,49.00
2023-06-23T06:46:23.542Z,48.91
2023-06-23T06:48:54.351Z,48.82
2023-06-23T06:51:25.102Z,48.37
2023-06-23T06:53:56.041Z,48.50
2023-06-23T06:56:26.828Z,48.09
2023-06-23T06:58:57.759Z,48.38
2023-06-23T07:01:28.551Z,48.17
2023-06-23T07:03:59.296Z,48.07
2023-06-23T07:06:30.004Z,48.07
2023-06-23T07:09:00.923Z,47.73
2023-06-23T07:11:33.424Z,47.63
2023-06-23T07:14:04.951Z,47.47
2023-06-23T07:16:35.607Z,47.45
2023-06-23T07:19:06.284Z,47.48
2023-06-23T07:21:37.050Z,47.06
2023-06-23T07:24:07.876Z,47.05
2023-06-23T07:26:38.697Z,46.94
2023-06-23T07:29:11.815Z,46.68
2023-06-23T07:31:43.091Z,46.22
2023-06-23T07:34:14.729Z,46.26
2023-06-23T07:36:45.513Z,46.05
2023-06-23T07:39:16.263Z,45.93
2023-06-23T07:41:50.265Z,45.63
2023-06-23T07:44:22.416Z,45.48
2023-06-23T07:46:53.405Z,45.25
2023-06-23T07:49:24.456Z,44.91
2023-06-23T07:51:55.235Z,44.69
2023-06-23T07:54:25.922Z,44.64
2023-06-23T07:56:56.596Z,44.61
2023-06-23T07:59:27.872Z,44.19
2023-06-23T08:01:58.507Z,44.03
2023-06-23T08:04:29.640Z,43.81
2023-06-23T08:07:01.199Z,43.70
2023-06-23T08:09:32.127Z,43.19
2023-06-23T08:12:02.919Z,42.91
2023-06-23T08:14:33.649Z,42.57
2023-06-23T08:17:04.643Z,42.78
2023-06-23T08:19:36.655Z,42.35
2023-06-23T08:22:07.896Z,41.84
2023-06-23T08:24:38.748Z,41.52
2023-06-23T08:27:10.167Z,41.20
2023-06-23T08:29:40.992Z,41.30
2023-06-23T08:32:11.839Z,41.01
2023-06-23T08:34:42.582Z,40.53
2023-06-23T08:37:13.304Z,39.91
2023-06-23T08:39:44.223Z,39.90
2023-06-23T08:42:15.168Z,39.69
2023-06-23T08:44:46.042Z,39.23
2023-06-23T08:47:16.884Z,39.12
2023-06-23T08:49:47.634Z,38.84
2023-06-23T08:52:18.825Z,38.84
2023-06-23T08:54:49.726Z,38.59
2023-06-23T08:57:20.608Z,38.62
2023-06-23T08:59:51.538Z,38.21
2023-06-23T09:02:22.336Z,37.81
2023-06-23T09:04:53.102Z,37.67
2023-06-23T09:07:25.880Z,37.37
2023-06-23T09:09:56.602Z,36.83
2023-06-23T09:12:27.333Z,36.78
2023-06-23T09:14:58.301Z,36.81
2023-06-23T09:17:29.125Z,36.38
2023-06-23T09:19:59.918Z,36.29
2023-06-23T09:22:30.762Z,36.18
2023-06-23T09:25:01.695Z,35.81
2023-06-23T09:27:45.973Z,35.43
2023-06-23T09:30:16.759Z,35.43
2023-06-23T09:32:47.671Z,35.04
2023-06-23T09:35:21.640Z,35.02
2023-06-23T09:37:52.214Z,34.73
2023-06-23T09:40:28.419Z,34.52
2023-06-23T09:43:02.238Z,34.18
2023-06-23T09:45:33.114Z,33.94
2023-06-23T09:48:03.943Z,33.71
2023-06-23T09:50:35.351Z,33.81
2023-06-23T09:53:06.354Z,33.71
2023-06-23T09:55:37.303Z,33.02
2023-06-23T09:58:11.991Z,32.81
2023-06-23T10:00:42.727Z,32.89
2023-06-23T10:03:13.532Z,32.53
2023-06-23T10:05:44.293Z,32.69
2023-06-23T10:08:15.181Z,32.50
2023-06-23T10:10:46.674Z,32.21
2023-06-23T10:13:17.469Z,32.06
2023-06-23T10:15:48.348Z,31.65
2023-06-23T10:18:19.151Z,31.49
2023-06-23T10:20:49.895Z,31.12
2023-06-23T10:23:20.640Z,30.89
2023-06-23T10:25:51.468Z,30.57
2023-06-23T10:28:22.330Z,30.30
2023-06-23T10:30:53.207Z,30.28
2023-06-23T10:33:24.499Z,30.15
2023-06-23T10:35:56.348Z,29.98
2023-06-23T10:38:27.113Z,29.57
2023-06-23T10:40:57.913Z,29.51
2023-06-23T10:43:28.960Z,29.12
2023-06-23T10:46:01.092Z,28.95
2023-06-23T10:48:31.933Z,28.63
2023-06-23T10:51:03.237Z,28.33
2023-06-23T10:53:35.167Z,28.23
2023-06-23T10:56:09.306Z,28.27
2023-06-23T10:58:53.508Z,28.04
2023-06-23T11:01:24.326Z,27.97
2023-06-23T11:03:55.493Z,27.68
2023-06-23T11:06:29.902Z,27.39
2023-06-23T11:09:01.047Z,27.23
2023-06-23T11:11:35.421Z,27.25
2023-06-23T11:14:06.077Z,27.20
2023-06-23T11:16:39.570Z,26.96
2023-06-23T11:19:10.522Z,26.79
2023-06-23T11:21:42.062Z,26.64
2023-06-23T11:24:16.583Z,26.58
2023-06-23T11:27:02.536Z,26.52
2023-06-23T11:29:33.806Z,26.25
2023-06-23T11:32:19.297Z,26.02
2023-06-23T11:34:54.072Z,25.63
2023-06-23T11:37:26.807Z,25.49
2023-06-23T11:39:57.744Z,25.24
2023-06-23T11:42:28.542Z,24.98
2023-06-23T11:44:59.613Z,24.80
2023-06-23T11:47:34.111Z,24.77
2023-06-23T11:50:05.573Z,24.74
2023-06-23T11:52:36.407Z,24.76
2023-06-23T11:55:08.139Z,24.27
2023-06-23T11:57:39.245Z,24.27
2023-06-23T12:00:12.719Z,24.20
2023-06-23T12:02:44.371Z,24.12
2023-06-23T12:05:15.288Z,23.94
2023-06-23T12:07:46.057Z,23.87
2023-06-23T12:10:17.213Z,23.57
2023-06-23T12:12:50.192Z,23.49
2023-06-23T12:15:21.835Z,23.56
2023-06-23T12:17:52.584Z,23.35
2023-06-23T12:20:23.577Z,23.36
2023-06-23T12:22:54.382Z,23.26
2023-06-23T12:25:27.788Z,23.33
2023-06-23T12:27:58.842Z,23.18
2023-06-23T12:30:30.268Z,23.14
2023-06-23T12:33:03.115Z,22.95
2023-06-23T12:35:34.274Z,22.90
2023-06-23T12:38:08.846Z,22.91
2023-06-23T12:40:44.356Z,23.00
2023-06-23T12:43:15.291Z,22.81
2023-06-23T12:45:46.038Z,22.68
2023-06-23T12:48:19.886Z,22.74
2023-06-23T12:50:54.598Z,22.51
2023-06-23T12:53:25.281Z,22.35
2023-06-23T12:55:56.197Z,22.42
2023-06-23T12:58:27.230Z,22.63
2023-06-23T13:00:58.282Z,22.60
2023-06-23T13:03:29.145Z,22.58
2023-06-23T13:06:00.602Z,22.42
2023-06-23T13:08:31.381Z,22.43
2023-06-23T13:11:02.193Z,22.36
2023-06-23T13:13:33.288Z,22.42
2023-06-23T13:16:04.196Z,22.44
2023-06-23T13:18:35.082Z,22.46
2023-06-23T13:21:05.971Z,22.56
2023-06-23T13:23:36.882Z,22.55
2023-06-23T13:26:07.781Z,22.52
2023-06-23T13:28:39.911Z,22.54
2023-06-23T13:31:10.892Z,22.55
2023-06-23T13:33:41.512Z,22.61
2023-06-23T13:36:12.536Z,22.59
2023-06-23T13:38:43.981Z,22.62
2023-06-23T13:41:15.001Z,22.61
2023-06-23T13:43:45.936Z,22.73
2023-06-23T13:46:16.707Z,22.73
2023-06-23T13:48:47.383Z,22.96
2023-06-23T13:51:18.135Z,22.99
2023-06-23T13:53:48.764Z,22.95
2023-06-23T13:56:20.000Z,23.08
2023-06-23T13:58:50.753Z,23.20
2023-06-23T14:01:21.672Z,23.21
2023-06-23T14:03:53.319Z,23.30
2023-06-23T14:06:24.192Z,23.42
2023-06-23T14:08:56.258Z,23.50
2023-06-23T14:11:27.037Z,23.65
2023-06-23T14:13:57.756Z,23.59
2023-06-23T14:16:28.521Z,23.64
2023-06-23T14:18:59.309Z,23.86
2023-06-23T14:21:30.095Z,24.04
2023-06-23T14:24:01.093Z,24.01
2023-06-23T14:26:31.877Z,24.20
2023-06-23T14:29:02.716Z,24.18
2023-06-23T14:31:35.254Z,24.22
2023-06-23T14:34:05.991Z,24.37
2023-06-23T14:36:36.888Z,24.27
2023-06-23T14:39:07.516Z,24.20
2023-06-23T14:41:38.338Z,24.26
2023-06-23T14:44:09.217Z,24.37
2023-06-23T14:46:39.979Z,24.55
2023-06-23T14:49:10.700Z,24.60
2023-06-23T14:51:41.480Z,24.55
2023-06-23T14:54:12.252Z,24.80
2023-06-23T14:56:43.047Z,24.77
2023-06-23T14:59:14.115Z,24.86
2023-06-23T15:01:45.387Z,25.09
2023-06-23T15:04:16.424Z,24.89
2023-06-23T15:06:47.381Z,25.10
2023-06-23T15:09:18.367Z,25.11
2023-06-23T15:11:49.032Z,25.10
2023-06-23T15:14:20.566Z,25.16
2023-06-23T15:16:51.785Z,25.15
2023-06-23T15:19:23.433Z,25.23
2023-06-23T15:21:54.722Z,25.04
2023-06-23T15:24:25.440Z,25.15
2023-06-23T15:26:56.549Z,25.16
2023-06-23T15:29:27.240Z,25.31
2023-06-23T15:31:58.532Z,25.26
2023-06-23T15:34:31.173Z,25.22
2023-06-23T15:37:02.046Z,25.31
2023-06-23T15:39:33.355Z,25.38
2023-06-23T15:42:04.289Z,25.27
2023-06-23T15:44:35.086Z,25.37
2023-06-23T15:47:06.176Z,25.35
2023-06-23T15:49:36.963Z,25.39
2023-06-23T15:52:08.311Z,25.41
2023-06-23T15:54:38.782Z,25.47
2023-06-23T15:57:12.053Z,25.36
2023-06-23T15:59:44.296Z,25.52
2023-06-23T16:02:15.289Z,25.43
2023-06-23T16:04:46.129Z,25.51
2023-06-23T16:07:17.045Z,25.48
2023-06-23T16:09:47.949Z,25.52
2023-06-23T16:12:18.983Z,25.47
2023-06-23T16:14:49.838Z,25.33
2023-06-23T16:17:20.419Z,25.47
2023-06-23T16:19:51.746Z,25.66
2023-06-23T16:22:22.475Z,25.60
2023-06-23T16:24:53.193Z,25.61
2023-06-23T16:27:23.998Z,25.62
2023-06-23T16:29:54.824Z,25.70
2023-06-23T16:32:26.979Z,25.63
2023-06-23T16:34:59.803Z,25.75
2023-06-23T16:37:30.569Z,25.79
2023-06-23T16:40:02.660Z,25.89
2023-06-23T16:42:33.528Z,25.87
2023-06-23T16:45:04.291Z,26.03
2023-06-23T16:47:34.969Z,26.02
2023-06-23T16:50:06.105Z,26.04
2023-06-23T16:52:36.808Z,26.17
2023-06-23T16:55:08.899Z,26.19
2023-06-23T16:57:40.446Z,26.24
2023-06-23T17:00:12.628Z,26.36
2023-06-23T17:02:43.588Z,26.44
2023-06-23T17:05:15.621Z,26.49
2023-06-23T17:07:46.293Z,26.68
2023-06-23T17:10:17.205Z,26.62
2023-06-23T17:12:47.980Z,26.64
2023-06-23T17:15:18.872Z,26.77
2023-06-23T17:17:49.827Z,26.80
2023-06-23T17:20:20.825Z,26.93
2023-06-23T17:22:51.767Z,26.95
2023-06-23T17:25:22.504Z,26.93
2023-06-23T17:27:52.926Z,27.24
2023-06-23T17:30:23.829Z,27.24
2023-06-23T17:32:55.600Z,27.18
2023-06-23T17:35:26.465Z,27.41
2023-06-23T17:37:57.335Z,27.34
2023-06-23T17:40:28.418Z,27.47
2023-06-23T17:42:59.336Z,27.37
2023-06-23T17:45:34.988Z,27.76
2023-06-23T17:48:06.674Z,27.55
2023-06-23T17:50:37.865Z,27.47
2023-06-23T17:53:08.946Z,27.60
2023-06-23T17:55:39.757Z,27.88
2023-06-23T17:58:10.966Z,27.86
2023-06-23T18:00:42.709Z,27.83
2023-06-23T18:03:13.605Z,27.82
2023-06-23T18:05:44.743Z,28.24
2023-06-23T18:08:15.426Z,27.76
2023-06-23T18:10:47.340Z,27.96
2023-06-23T18:13:18.914Z,28.21
2023-06-23T18:15:49.974Z,28.10
2023-06-23T18:18:20.836Z,28.30
2023-06-23T18:20:51.746Z,28.13
2023-06-23T18:23:23.084Z,28.18
2023-06-23T18:25:53.968Z,28.61
2023-06-23T18:28:24.789Z,28.44
2023-06-23T18:30:57.775Z,28.60
2023-06-23T18:33:34.562Z,28.53
2023-06-23T18:36:05.510Z,28.53
2023-06-23T18:38:36.110Z,28.57
2023-06-23T18:41:06.982Z,28.67
2023-06-23T18:43:38.062Z,28.77
2023-06-23T18:46:11.764Z,28.83
2023-06-23T18:48:42.682Z,29.02
2023-06-23T18:51:15.250Z,28.93
2023-06-23T18:53:47.168Z,29.19
2023-06-23T18:56:19.966Z,29.17
2023-06-23T18:58:56.220Z,29.25
2023-06-23T19:01:29.058Z,29.38
2023-06-23T19:04:02.130Z,29.68
2023-06-23T19:06:36.839Z,29.39
2023-06-23T19:09:11.024Z,29.55
2023-06-23T19:11:51.145Z,29.75
2023-06-23T19:14:25.067Z,29.83
2023-06-23T19:17:02.880Z,29.88
2023-06-23T19:19:37.889Z,29.88
2023-06-23T19:22:10.869Z,30.11
2023-06-23T19:24:44.424Z,30.06
2023-06-23T19:27:18.100Z,30.29
2023-06-23T19:29:50.974Z,30.45
2023-06-23T19:32:22.784Z,30.47
2023-06-23T19:34:54.912Z,30.59
2023-06-23T19:37:26.712Z,30.69
2023-06-23T19:40:10.371Z,30.83
2023-06-23T19:42:42.777Z,30.92
2023-06-23T19:45:14.969Z,30.97
2023-06-23T19:47:46.945Z,30.97
2023-06-23T19:56:44.444Z,31.10
2023-06-23T19:59:15.177Z,31.35
2023-06-23T20:01:46.154Z,31.27
2023-06-23T20:04:17.980Z,31.46
2023-06-23T20:06:49.011Z,31.62
2023-06-23T20:09:19.748Z,31.50
2023-06-23T20:11:50.656Z,32.02
2023-06-23T20:14:21.437Z,31.97
2023-06-23T20:16:52.244Z,32.28
2023-06-23T20:19:24.012Z,32.15
2023-06-23T20:21:54.725Z,32.37
2023-06-23T20:24:25.833Z,32.41
2023-06-23T20:26:56.932Z,32.33
2023-06-23T20:29:28.132Z,32.64
2023-06-23T20:31:59.214Z,32.47
2023-06-23T20:34:30.150Z,32.75
2023-06-23T20:37:01.204Z,32.66
2023-06-23T20:39:32.551Z,32.94
2023-06-23T20:42:03.529Z,32.88
2023-06-23T20:44:34.410Z,32.86
2023-06-23T20:47:05.776Z,32.89
2023-06-23T20:49:36.709Z,32.97
2023-06-23T20:52:08.409Z,33.28
2023-06-23T20:54:39.447Z,33.36
2023-06-23T20:57:10.479Z,33.33
2023-06-23T20:59:44.139Z,33.55
2023-06-23T21:02:14.852Z,33.58
2023-06-23T21:04:45.707Z,33.51
2023-06-23T21:07:16.772Z,33.60
2023-06-23T21:09:47.724Z,33.57
2023-06-23T21:12:18.796Z,33.72
2023-06-23T21:17:42.091Z,33.92
2023-06-23T21:20:14.186Z,33.92
2023-06-23T21:22:45.141Z,33.88
2023-06-23T21:25:16.127Z,34.02
2023-06-23T21:27:47.387Z,34.04
2023-06-23T21:30:18.785Z,34.04
2023-06-23T21:32:49.800Z,34.09
2023-06-23T21:35:20.638Z,33.99
2023-06-23T21:37:51.352Z,34.12
2023-06-23T21:40:22.643Z,34.10
2023-06-23T21:42:53.484Z,34.03
2023-06-23T21:45:25.048Z,34.16
2023-06-23T21:47:56.073Z,34.19
2023-06-23T21:50:29.552Z,34.20
2023-06-23T21:53:02.616Z,34.31
2023-06-23T21:55:35.457Z,34.52
2023-06-23T21:58:08.125Z,34.50
2023-06-23T22:00:38.937Z,34.57
2023-06-23T22:03:09.613Z,34.62
2023-06-23T22:05:40.341Z,34.70
2023-06-23T22:08:11.311Z,34.99
2023-06-23T22:10:42.257Z,35.04
2023-06-23T22:13:12.940Z,35.13
2023-06-23T22:15:43.784Z,35.08
2023-06-23T22:18:35.675Z,35.31
2023-06-23T22:21:05.734Z,35.30
2023-06-23T22:23:36.641Z,35.36
2023-06-23T22:26:07.274Z,35.47
2023-06-23T22:28:38.010Z,35.45
2023-06-23T22:31:08.841Z,35.57
2023-06-23T22:33:39.759Z,35.67
2023-06-23T22:36:10.907Z,35.76
2023-06-23T22:38:43.569Z,35.68
2023-06-23T22:41:14.276Z,35.85
2023-06-23T22:43:45.068Z,35.78
2023-06-23T22:46:15.930Z,35.90
2023-06-23T22:48:47.091Z,36.04
2023-06-23T22:51:20.188Z,36.04
2023-06-23T22:53:50.860Z,36.27
2023-06-23T22:56:21.705Z,36.26
2023-06-23T22:58:53.730Z,36.46
2023-06-23T23:01:25.193Z,36.54
2023-06-23T23:03:55.979Z,36.58
2023-06-23T23:06:26.845Z,36.68
2023-06-23T23:08:58.060Z,36.77
2023-06-23T23:11:28.774Z,36.89
2023-06-23T23:13:59.546Z,36.85
2023-06-23T23:16:31.633Z,36.94
2023-06-23T23:19:02.343Z,37.06
2023-06-23T23:21:33.213Z,37.19
2023-06-23T23:24:03.955Z,37.28
2023-06-23T23:26:35.707Z,37.57
2023-06-23T23:29:06.550Z,37.67
2023-06-23T23:31:41.473Z,37.84
2023-06-23T23:34:12.442Z,37.91
2023-06-23T23:36:49.659Z,37.93
2023-06-23T23:39:20.695Z,38.04
2023-06-23T23:41:51.531Z,38.15
2023-06-23T23:44:23.204Z,38.34
2023-06-23T23:46:53.988Z,38.37
2023-06-23T23:49:24.882Z,38.49
2023-06-23T23:51:57.586Z,38.63
2023-06-23T23:54:28.217Z,38.76
2023-06-23T23:56:59.359Z,38.95
2023-06-23T23:59:30.263Z,39.16
